sensor_id;sensor_type;location;lat;lon;timestamp;P1;durP1;ratioP1;P2;durP2;ratioP2
6077;SDS011;3067;49.470;10.394;2023-03-03T00:01:32;24.73;;;12.20;;
6077;SDS011;3067;49.470;10.394;2023-03-03T00:03:59;22.30;;;11.37;;
6077;SDS011;3067;49.470;10.394;2023-03-03T00:06:28;24.73;;;11.33;;
6077;SDS011;3067;49.470;10.394;2023-03-03T00:08:55;27.20;;;11.63;;
6077;SDS011;3067;49.470;10.394;2023-03-03T00:11:22;35.13;;;13.33;;
6077;SDS011;3067;49.470;10.394;2023-03-03T00:13:50;39.77;;;11.53;;
6077;SDS011;3067;49.470;10.394;2023-03-03T00:16:21;39.27;;;12.07;;
6077;SDS011;3067;49.470;10.394;2023-03-03T00:18:50;57.83;;;12.27;;
6077;SDS011;3067;49.470;10.394;2023-03-03T00:21:21;32.13;;;12.00;;
6077;SDS011;3067;49.470;10.394;2023-03-03T00:23:51;27.67;;;11.60;;
6077;SDS011;3067;49.470;10.394;2023-03-03T00:26:20;26.50;;;11.90;;
6077;SDS011;3067;49.470;10.394;2023-03-03T00:28:48;23.87;;;10.83;;
6077;SDS011;3067;49.470;10.394;2023-03-03T00:31:16;27.57;;;11.70;;
6077;SDS011;3067;49.470;10.394;2023-03-03T00:33:45;29.13;;;11.60;;
6077;SDS011;3067;49.470;10.394;2023-03-03T00:41:49;29.40;;;11.67;;
6077;SDS011;3067;49.470;10.394;2023-03-03T00:46:59;23.13;;;12.27;;
6077;SDS011;3067;49.470;10.394;2023-03-03T00:49:28;22.50;;;12.20;;
6077;SDS011;3067;49.470;10.394;2023-03-03T00:51:56;24.07;;;11.90;;
6077;SDS011;3067;49.470;10.394;2023-03-03T00:54:23;21.07;;;11.07;;
6077;SDS011;3067;49.470;10.394;2023-03-03T00:56:52;25.27;;;12.00;;
6077;SDS011;3067;49.470;10.394;2023-03-03T00:59:19;20.97;;;10.77;;
6077;SDS011;3067;49.470;10.394;2023-03-03T01:01:46;23.40;;;11.37;;
6077;SDS011;3067;49.470;10.394;2023-03-03T01:04:14;26.83;;;12.73;;
6077;SDS011;3067;49.470;10.394;2023-03-03T01:06:41;21.97;;;11.13;;
6077;SDS011;3067;49.470;10.394;2023-03-03T01:09:08;23.43;;;11.63;;
6077;SDS011;3067;49.470;10.394;2023-03-03T01:11:35;28.03;;;12.13;;
6077;SDS011;3067;49.470;10.394;2023-03-03T01:14:04;21.80;;;10.47;;
6077;SDS011;3067;49.470;10.394;2023-03-03T01:16:32;24.67;;;11.10;;
6077;SDS011;3067;49.470;10.394;2023-03-03T01:19:00;20.70;;;10.30;;
6077;SDS011;3067;49.470;10.394;2023-03-03T01:21:27;26.17;;;11.20;;
6077;SDS011;3067;49.470;10.394;2023-03-03T01:23:54;28.70;;;12.10;;
6077;SDS011;3067;49.470;10.394;2023-03-03T01:26:22;26.97;;;11.33;;
6077;SDS011;3067;49.470;10.394;2023-03-03T01:28:49;32.37;;;11.90;;
6077;SDS011;3067;49.470;10.394;2023-03-03T01:31:18;26.47;;;11.67;;
6077;SDS011;3067;49.470;10.394;2023-03-03T01:33:45;26.87;;;11.83;;
6077;SDS011;3067;49.470;10.394;2023-03-03T01:36:12;26.93;;;12.30;;
6077;SDS011;3067;49.470;10.394;2023-03-03T01:38:40;24.17;;;11.50;;
6077;SDS011;3067;49.470;10.394;2023-03-03T01:41:07;24.87;;;10.87;;
6077;SDS011;3067;49.470;10.394;2023-03-03T01:43:41;20.10;;;10.80;;
6077;SDS011;3067;49.470;10.394;2023-03-03T01:46:24;22.50;;;11.60;;
6077;SDS011;3067;49.470;10.394;2023-03-03T01:48:55;31.73;;;14.13;;
6077;SDS011;3067;49.470;10.394;2023-03-03T01:51:27;35.43;;;13.93;;
6077;SDS011;3067;49.470;10.394;2023-03-03T01:53:55;27.60;;;13.00;;
6077;SDS011;3067;49.470;10.394;2023-03-03T01:56:23;27.70;;;11.03;;
6077;SDS011;3067;49.470;10.394;2023-03-03T01:58:52;27.90;;;12.17;;
6077;SDS011;3067;49.470;10.394;2023-03-03T02:01:22;28.17;;;12.40;;
6077;SDS011;3067;49.470;10.394;2023-03-03T02:03:50;22.03;;;10.60;;
6077;SDS011;3067;49.470;10.394;2023-03-03T02:06:19;25.00;;;11.67;;
6077;SDS011;3067;49.470;10.394;2023-03-03T02:08:50;26.60;;;11.40;;
6077;SDS011;3067;49.470;10.394;2023-03-03T02:11:20;27.97;;;12.30;;
6077;SDS011;3067;49.470;10.394;2023-03-03T02:13:47;29.83;;;12.20;;
6077;SDS011;3067;49.470;10.394;2023-03-03T02:16:15;20.80;;;10.87;;
6077;SDS011;3067;49.470;10.394;2023-03-03T02:18:43;26.63;;;11.43;;
6077;SDS011;3067;49.470;10.394;2023-03-03T02:21:11;24.30;;;11.17;;
6077;SDS011;3067;49.470;10.394;2023-03-03T02:23:42;27.27;;;11.70;;
6077;SDS011;3067;49.470;10.394;2023-03-03T02:26:15;28.13;;;11.40;;
6077;SDS011;3067;49.470;10.394;2023-03-03T02:28:43;22.47;;;10.33;;
6077;SDS011;3067;49.470;10.394;2023-03-03T02:31:11;25.63;;;11.97;;
6077;SDS011;3067;49.470;10.394;2023-03-03T02:33:39;28.33;;;11.43;;
6077;SDS011;3067;49.470;10.394;2023-03-03T02:36:09;29.07;;;11.10;;
6077;SDS011;3067;49.470;10.394;2023-03-03T02:38:38;25.30;;;11.93;;
6077;SDS011;3067;49.470;10.394;2023-03-03T02:41:08;25.27;;;11.37;;
6077;SDS011;3067;49.470;10.394;2023-03-03T02:43:40;28.20;;;10.53;;
6077;SDS011;3067;49.470;10.394;2023-03-03T02:46:08;22.23;;;9.97;;
6077;SDS011;3067;49.470;10.394;2023-03-03T02:48:36;25.57;;;12.10;;
6077;SDS011;3067;49.470;10.394;2023-03-03T02:51:03;26.57;;;11.10;;
6077;SDS011;3067;49.470;10.394;2023-03-03T02:53:30;25.83;;;11.67;;
6077;SDS011;3067;49.470;10.394;2023-03-03T02:55:58;23.27;;;10.87;;
6077;SDS011;3067;49.470;10.394;2023-03-03T02:58:25;26.73;;;11.37;;
6077;SDS011;3067;49.470;10.394;2023-03-03T03:00:54;20.50;;;11.20;;
6077;SDS011;3067;49.470;10.394;2023-03-03T03:03:21;31.00;;;12.57;;
6077;SDS011;3067;49.470;10.394;2023-03-03T03:05:49;26.57;;;12.03;;
6077;SDS011;3067;49.470;10.394;2023-03-03T03:08:16;28.93;;;12.57;;
6077;SDS011;3067;49.470;10.394;2023-03-03T03:10:44;20.50;;;11.73;;
6077;SDS011;3067;49.470;10.394;2023-03-03T03:13:11;26.00;;;12.37;;
6077;SDS011;3067;49.470;10.394;2023-03-03T03:15:38;25.80;;;12.30;;
6077;SDS011;3067;49.470;10.394;2023-03-03T03:18:08;28.07;;;11.67;;
6077;SDS011;3067;49.470;10.394;2023-03-03T03:20:35;25.40;;;11.23;;
6077;SDS011;3067;49.470;10.394;2023-03-03T03:23:04;23.73;;;10.87;;
6077;SDS011;3067;49.470;10.394;2023-03-03T03:25:31;28.17;;;12.60;;
6077;SDS011;3067;49.470;10.394;2023-03-03T03:27:58;27.07;;;11.80;;
6077;SDS011;3067;49.470;10.394;2023-03-03T03:30:26;24.10;;;11.97;;
6077;SDS011;3067;49.470;10.394;2023-03-03T03:32:53;29.90;;;12.37;;
6077;SDS011;3067;49.470;10.394;2023-03-03T03:35:22;21.77;;;10.63;;
6077;SDS011;3067;49.470;10.394;2023-03-03T03:37:49;27.07;;;11.40;;
6077;SDS011;3067;49.470;10.394;2023-03-03T03:40:17;29.80;;;11.40;;
6077;SDS011;3067;49.470;10.394;2023-03-03T03:42:44;24.30;;;11.70;;
6077;SDS011;3067;49.470;10.394;2023-03-03T03:45:12;25.90;;;12.27;;
6077;SDS011;3067;49.470;10.394;2023-03-03T03:47:40;30.67;;;11.07;;
6077;SDS011;3067;49.470;10.394;2023-03-03T03:50:08;21.97;;;10.63;;
6077;SDS011;3067;49.470;10.394;2023-03-03T03:52:36;27.43;;;12.47;;
6077;SDS011;3067;49.470;10.394;2023-03-03T03:55:04;24.80;;;11.73;;
6077;SDS011;3067;49.470;10.394;2023-03-03T03:57:32;22.70;;;11.20;;
6077;SDS011;3067;49.470;10.394;2023-03-03T03:59:59;22.87;;;10.07;;
6077;SDS011;3067;49.470;10.394;2023-03-03T04:02:26;22.57;;;12.13;;
6077;SDS011;3067;49.470;10.394;2023-03-03T04:04:54;30.30;;;11.80;;
6077;SDS011;3067;49.470;10.394;2023-03-03T04:07:21;29.43;;;12.30;;
6077;SDS011;3067;49.470;10.394;2023-03-03T04:09:50;29.27;;;13.07;;
6077;SDS011;3067;49.470;10.394;2023-03-03T04:12:17;26.17;;;12.30;;
6077;SDS011;3067;49.470;10.394;2023-03-03T04:14:44;21.80;;;10.87;;
6077;SDS011;3067;49.470;10.394;2023-03-03T04:17:14;25.37;;;11.90;;
6077;SDS011;3067;49.470;10.394;2023-03-03T04:19:42;24.43;;;11.90;;
6077;SDS011;3067;49.470;10.394;2023-03-03T04:22:10;29.43;;;11.53;;
6077;SDS011;3067;49.470;10.394;2023-03-03T04:24:37;28.67;;;11.83;;
6077;SDS011;3067;49.470;10.394;2023-03-03T04:27:06;31.30;;;13.63;;
6077;SDS011;3067;49.470;10.394;2023-03-03T04:29:34;25.00;;;11.37;;
6077;SDS011;3067;49.470;10.394;2023-03-03T04:32:01;24.90;;;10.27;;
6077;SDS011;3067;49.470;10.394;2023-03-03T04:34:29;19.50;;;11.03;;
6077;SDS011;3067;49.470;10.394;2023-03-03T04:36:56;27.10;;;11.57;;
6077;SDS011;3067;49.470;10.394;2023-03-03T04:39:23;27.07;;;12.23;;
6077;SDS011;3067;49.470;10.394;2023-03-03T04:41:51;28.70;;;11.07;;
6077;SDS011;3067;49.470;10.394;2023-03-03T04:44:20;25.10;;;11.07;;
6077;SDS011;3067;49.470;10.394;2023-03-03T04:46:47;23.10;;;11.47;;
6077;SDS011;3067;49.470;10.394;2023-03-03T04:49:14;23.80;;;12.20;;
6077;SDS011;3067;49.470;10.394;2023-03-03T04:51:42;27.67;;;11.47;;
6077;SDS011;3067;49.470;10.394;2023-03-03T04:54:09;26.70;;;12.00;;
6077;SDS011;3067;49.470;10.394;2023-03-03T04:56:36;37.43;;;10.87;;
6077;SDS011;3067;49.470;10.394;2023-03-03T04:59:04;24.80;;;10.80;;
6077;SDS011;3067;49.470;10.394;2023-03-03T05:01:32;23.33;;;11.27;;
6077;SDS011;3067;49.470;10.394;2023-03-03T05:04:00;28.03;;;12.17;;
6077;SDS011;3067;49.470;10.394;2023-03-03T05:06:27;39.30;;;11.20;;
6077;SDS011;3067;49.470;10.394;2023-03-03T05:08:54;23.77;;;11.83;;
6077;SDS011;3067;49.470;10.394;2023-03-03T05:11:22;29.47;;;12.03;;
6077;SDS011;3067;49.470;10.394;2023-03-03T05:13:49;30.90;;;13.03;;
6077;SDS011;3067;49.470;10.394;2023-03-03T05:16:16;26.77;;;12.47;;
6077;SDS011;3067;49.470;10.394;2023-03-03T05:18:45;25.30;;;11.67;;
6077;SDS011;3067;49.470;10.394;2023-03-03T05:21:12;28.53;;;12.30;;
6077;SDS011;3067;49.470;10.394;2023-03-03T05:23:40;29.33;;;13.83;;
6077;SDS011;3067;49.470;10.394;2023-03-03T05:26:07;28.70;;;12.90;;
6077;SDS011;3067;49.470;10.394;2023-03-03T05:28:34;38.27;;;14.07;;
6077;SDS011;3067;49.470;10.394;2023-03-03T05:31:02;30.53;;;12.80;;
6077;SDS011;3067;49.470;10.394;2023-03-03T05:33:29;28.17;;;13.10;;
6077;SDS011;3067;49.470;10.394;2023-03-03T05:35:58;29.70;;;13.53;;
6077;SDS011;3067;49.470;10.394;2023-03-03T05:38:25;26.17;;;11.47;;
6077;SDS011;3067;49.470;10.394;2023-03-03T05:40:53;29.00;;;12.23;;
6077;SDS011;3067;49.470;10.394;2023-03-03T05:43:20;30.80;;;13.00;;
6077;SDS011;3067;49.470;10.394;2023-03-03T05:45:47;59.63;;;12.57;;
6077;SDS011;3067;49.470;10.394;2023-03-03T05:48:20;37.40;;;13.03;;
6077;SDS011;3067;49.470;10.394;2023-03-03T05:50:47;52.80;;;12.70;;
6077;SDS011;3067;49.470;10.394;2023-03-03T05:53:16;24.07;;;11.93;;
6077;SDS011;3067;49.470;10.394;2023-03-03T05:55:43;30.80;;;12.70;;
6077;SDS011;3067;49.470;10.394;2023-03-03T05:58:10;33.83;;;13.53;;
6077;SDS011;3067;49.470;10.394;2023-03-03T06:00:38;31.03;;;13.80;;
6077;SDS011;3067;49.470;10.394;2023-03-03T06:03:05;27.57;;;12.90;;
6077;SDS011;3067;49.470;10.394;2023-03-03T06:05:32;26.50;;;11.80;;
6077;SDS011;3067;49.470;10.394;2023-03-03T06:08:00;34.83;;;11.80;;
6077;SDS011;3067;49.470;10.394;2023-03-03T06:10:28;28.33;;;12.17;;
6077;SDS011;3067;49.470;10.394;2023-03-03T06:12:56;28.60;;;12.93;;
6077;SDS011;3067;49.470;10.394;2023-03-03T06:15:23;34.50;;;12.47;;
6077;SDS011;3067;49.470;10.394;2023-03-03T06:17:51;32.30;;;12.70;;
6077;SDS011;3067;49.470;10.394;2023-03-03T06:20:18;25.97;;;12.07;;
6077;SDS011;3067;49.470;10.394;2023-03-03T06:22:46;30.33;;;12.23;;
6077;SDS011;3067;49.470;10.394;2023-03-03T06:25:14;37.97;;;14.20;;
6077;SDS011;3067;49.470;10.394;2023-03-03T06:27:43;26.87;;;11.73;;
6077;SDS011;3067;49.470;10.394;2023-03-03T06:30:11;77.30;;;14.03;;
6077;SDS011;3067;49.470;10.394;2023-03-03T06:32:38;48.80;;;13.77;;
6077;SDS011;3067;49.470;10.394;2023-03-03T06:35:06;36.03;;;12.67;;
6077;SDS011;3067;49.470;10.394;2023-03-03T06:37:33;32.37;;;12.60;;
6077;SDS011;3067;49.470;10.394;2023-03-03T06:40:01;27.67;;;13.10;;
6077;SDS011;3067;49.470;10.394;2023-03-03T06:42:28;44.70;;;14.57;;
6077;SDS011;3067;49.470;10.394;2023-03-03T06:44:57;34.67;;;14.20;;
6077;SDS011;3067;49.470;10.394;2023-03-03T06:47:24;38.53;;;15.00;;
6077;SDS011;3067;49.470;10.394;2023-03-03T06:49:52;31.83;;;15.37;;
6077;SDS011;3067;49.470;10.394;2023-03-03T06:52:20;35.00;;;16.37;;
6077;SDS011;3067;49.470;10.394;2023-03-03T06:54:48;48.27;;;16.97;;
6077;SDS011;3067;49.470;10.394;2023-03-03T06:57:18;46.70;;;19.33;;
6077;SDS011;3067;49.470;10.394;2023-03-03T06:59:47;75.20;;;19.03;;
6077;SDS011;3067;49.470;10.394;2023-03-03T07:02:16;50.47;;;16.10;;
6077;SDS011;3067;49.470;10.394;2023-03-03T07:04:44;37.53;;;15.87;;
6077;SDS011;3067;49.470;10.394;2023-03-03T07:07:15;51.13;;;15.30;;
6077;SDS011;3067;49.470;10.394;2023-03-03T07:09:43;38.90;;;14.30;;
6077;SDS011;3067;49.470;10.394;2023-03-03T07:12:12;49.37;;;16.13;;
6077;SDS011;3067;49.470;10.394;2023-03-03T07:14:40;41.10;;;14.53;;
6077;SDS011;3067;49.470;10.394;2023-03-03T07:17:09;33.70;;;15.20;;
6077;SDS011;3067;49.470;10.394;2023-03-03T07:19:39;40.40;;;15.10;;
6077;SDS011;3067;49.470;10.394;2023-03-03T07:22:11;56.37;;;19.50;;
6077;SDS011;3067;49.470;10.394;2023-03-03T07:24:40;58.50;;;21.50;;
6077;SDS011;3067;49.470;10.394;2023-03-03T07:27:10;57.63;;;23.67;;
6077;SDS011;3067;49.470;10.394;2023-03-03T07:29:38;38.00;;;17.00;;
6077;SDS011;3067;49.470;10.394;2023-03-03T07:32:12;38.50;;;14.13;;
6077;SDS011;3067;49.470;10.394;2023-03-03T07:34:47;32.17;;;14.57;;
6077;SDS011;3067;49.470;10.394;2023-03-03T07:37:15;27.80;;;14.00;;
6077;SDS011;3067;49.470;10.394;2023-03-03T07:39:44;34.73;;;15.10;;
6077;SDS011;3067;49.470;10.394;2023-03-03T07:42:14;34.83;;;16.23;;
6077;SDS011;3067;49.470;10.394;2023-03-03T07:44:44;48.73;;;26.93;;
6077;SDS011;3067;49.470;10.394;2023-03-03T07:47:14;44.70;;;18.87;;
6077;SDS011;3067;49.470;10.394;2023-03-03T07:49:44;29.60;;;14.83;;
6077;SDS011;3067;49.470;10.394;2023-03-03T07:52:19;37.30;;;14.33;;
6077;SDS011;3067;49.470;10.394;2023-03-03T07:54:47;30.17;;;14.20;;
6077;SDS011;3067;49.470;10.394;2023-03-03T07:57:18;38.03;;;15.07;;
6077;SDS011;3067;49.470;10.394;2023-03-03T07:59:47;33.07;;;14.43;;
6077;SDS011;3067;49.470;10.394;2023-03-03T08:04:59;30.90;;;14.90;;
6077;SDS011;3067;49.470;10.394;2023-03-03T08:07:28;38.40;;;15.77;;
6077;SDS011;3067;49.470;10.394;2023-03-03T08:09:57;35.20;;;14.93;;
6077;SDS011;3067;49.470;10.394;2023-03-03T08:12:30;34.10;;;15.00;;
6077;SDS011;3067;49.470;10.394;2023-03-03T08:15:07;33.67;;;15.37;;
6077;SDS011;3067;49.470;10.394;2023-03-03T08:17:38;33.10;;;14.97;;
6077;SDS011;3067;49.470;10.394;2023-03-03T08:20:10;36.97;;;14.60;;
6077;SDS011;3067;49.470;10.394;2023-03-03T08:22:56;32.93;;;15.00;;
6077;SDS011;3067;49.470;10.394;2023-03-03T08:25:24;42.30;;;15.30;;
6077;SDS011;3067;49.470;10.394;2023-03-03T08:27:51;38.30;;;15.57;;
6077;SDS011;3067;49.470;10.394;2023-03-03T08:30:18;42.20;;;16.57;;
6077;SDS011;3067;49.470;10.394;2023-03-03T08:32:47;38.20;;;16.37;;
6077;SDS011;3067;49.470;10.394;2023-03-03T08:35:14;49.50;;;18.17;;
6077;SDS011;3067;49.470;10.394;2023-03-03T08:37:41;41.70;;;17.40;;
6077;SDS011;3067;49.470;10.394;2023-03-03T08:40:11;42.17;;;17.17;;
6077;SDS011;3067;49.470;10.394;2023-03-03T08:42:38;41.80;;;17.67;;
6077;SDS011;3067;49.470;10.394;2023-03-03T08:45:05;46.23;;;18.37;;
6077;SDS011;3067;49.470;10.394;2023-03-03T08:47:33;38.97;;;17.70;;
6077;SDS011;3067;49.470;10.394;2023-03-03T08:50:00;45.97;;;18.50;;
6077;SDS011;3067;49.470;10.394;2023-03-03T08:52:27;48.73;;;17.53;;
6077;SDS011;3067;49.470;10.394;2023-03-03T08:54:54;47.43;;;17.77;;
6077;SDS011;3067;49.470;10.394;2023-03-03T08:57:23;42.47;;;18.03;;
6077;SDS011;3067;49.470;10.394;2023-03-03T08:59:51;53.13;;;19.27;;
6077;SDS011;3067;49.470;10.394;2023-03-03T09:02:18;42.13;;;17.47;;
6077;SDS011;3067;49.470;10.394;2023-03-03T09:04:45;48.73;;;19.17;;
6077;SDS011;3067;49.470;10.394;2023-03-03T09:07:12;45.17;;;18.73;;
6077;SDS011;3067;49.470;10.394;2023-03-03T09:09:40;47.80;;;17.63;;
6077;SDS011;3067;49.470;10.394;2023-03-03T09:12:12;40.00;;;17.87;;
6077;SDS011;3067;49.470;10.394;2023-03-03T09:14:42;41.43;;;17.77;;
6077;SDS011;3067;49.470;10.394;2023-03-03T09:17:18;48.70;;;19.37;;
6077;SDS011;3067;49.470;10.394;2023-03-03T09:19:47;40.97;;;19.50;;
6077;SDS011;3067;49.470;10.394;2023-03-03T09:22:17;44.93;;;19.70;;
6077;SDS011;3067;49.470;10.394;2023-03-03T09:24:45;39.33;;;18.47;;
6077;SDS011;3067;49.470;10.394;2023-03-03T09:27:14;38.37;;;18.40;;
6077;SDS011;3067;49.470;10.394;2023-03-03T09:29:46;50.93;;;19.53;;
6077;SDS011;3067;49.470;10.394;2023-03-03T09:32:20;48.87;;;19.67;;
6077;SDS011;3067;49.470;10.394;2023-03-03T09:34:48;46.53;;;19.43;;
6077;SDS011;3067;49.470;10.394;2023-03-03T09:37:18;40.50;;;19.23;;
6077;SDS011;3067;49.470;10.394;2023-03-03T09:39:47;43.73;;;19.00;;
6077;SDS011;3067;49.470;10.394;2023-03-03T09:42:22;50.70;;;20.40;;
6077;SDS011;3067;49.470;10.394;2023-03-03T09:44:58;42.33;;;19.07;;
6077;SDS011;3067;49.470;10.394;2023-03-03T09:47:38;48.13;;;19.13;;
6077;SDS011;3067;49.470;10.394;2023-03-03T09:50:11;48.13;;;19.00;;
6077;SDS011;3067;49.470;10.394;2023-03-03T09:52:44;50.77;;;21.10;;
6077;SDS011;3067;49.470;10.394;2023-03-03T09:55:18;44.23;;;18.30;;
6077;SDS011;3067;49.470;10.394;2023-03-03T09:57:52;42.97;;;18.90;;
6077;SDS011;3067;49.470;10.394;2023-03-03T10:00:26;47.87;;;20.30;;
6077;SDS011;3067;49.470;10.394;2023-03-03T10:03:02;45.07;;;19.70;;
6077;SDS011;3067;49.470;10.394;2023-03-03T10:05:39;42.17;;;19.40;;
6077;SDS011;3067;49.470;10.394;2023-03-03T10:08:11;44.10;;;19.30;;
6077;SDS011;3067;49.470;10.394;2023-03-03T10:10:44;43.23;;;18.93;;
6077;SDS011;3067;49.470;10.394;2023-03-03T10:13:20;48.77;;;19.93;;
6077;SDS011;3067;49.470;10.394;2023-03-03T10:15:56;47.07;;;20.97;;
6077;SDS011;3067;49.470;10.394;2023-03-03T10:18:29;38.30;;;19.77;;
6077;SDS011;3067;49.470;10.394;2023-03-03T10:21:01;47.33;;;19.77;;
6077;SDS011;3067;49.470;10.394;2023-03-03T10:23:37;44.43;;;19.20;;
6077;SDS011;3067;49.470;10.394;2023-03-03T10:26:10;46.43;;;19.73;;
6077;SDS011;3067;49.470;10.394;2023-03-03T10:28:52;48.30;;;21.27;;
6077;SDS011;3067;49.470;10.394;2023-03-03T10:31:27;43.40;;;19.60;;
6077;SDS011;3067;49.470;10.394;2023-03-03T10:33:58;44.30;;;19.07;;
6077;SDS011;3067;49.470;10.394;2023-03-03T10:36:33;41.67;;;18.50;;
6077;SDS011;3067;49.470;10.394;2023-03-03T10:39:09;40.50;;;19.30;;
6077;SDS011;3067;49.470;10.394;2023-03-03T10:41:50;45.43;;;20.87;;
6077;SDS011;3067;49.470;10.394;2023-03-03T10:44:26;45.43;;;21.17;;
6077;SDS011;3067;49.470;10.394;2023-03-03T10:47:04;41.43;;;19.10;;
6077;SDS011;3067;49.470;10.394;2023-03-03T10:49:38;48.27;;;20.90;;
6077;SDS011;3067;49.470;10.394;2023-03-03T10:52:18;51.13;;;21.17;;
6077;SDS011;3067;49.470;10.394;2023-03-03T10:57:32;37.30;;;18.73;;
6077;SDS011;3067;49.470;10.394;2023-03-03T11:00:06;45.80;;;19.90;;
6077;SDS011;3067;49.470;10.394;2023-03-03T11:02:45;44.40;;;20.20;;
6077;SDS011;3067;49.470;10.394;2023-03-03T11:05:21;41.43;;;20.20;;
6077;SDS011;3067;49.470;10.394;2023-03-03T11:07:54;46.10;;;21.50;;
6077;SDS011;3067;49.470;10.394;2023-03-03T11:10:23;43.40;;;19.30;;
6077;SDS011;3067;49.470;10.394;2023-03-03T11:12:57;45.33;;;19.60;;
6077;SDS011;3067;49.470;10.394;2023-03-03T11:15:41;38.20;;;18.77;;
6077;SDS011;3067;49.470;10.394;2023-03-03T11:18:16;43.27;;;19.40;;
6077;SDS011;3067;49.470;10.394;2023-03-03T11:20:49;45.10;;;20.97;;
6077;SDS011;3067;49.470;10.394;2023-03-03T11:23:25;48.90;;;20.80;;
6077;SDS011;3067;49.470;10.394;2023-03-03T11:26:05;41.90;;;19.93;;
6077;SDS011;3067;49.470;10.394;2023-03-03T11:28:41;40.37;;;20.10;;
6077;SDS011;3067;49.470;10.394;2023-03-03T11:31:12;44.40;;;19.97;;
6077;SDS011;3067;49.470;10.394;2023-03-03T11:33:46;40.07;;;19.10;;
6077;SDS011;3067;49.470;10.394;2023-03-03T11:36:17;43.00;;;19.47;;
6077;SDS011;3067;49.470;10.394;2023-03-03T11:38:50;38.37;;;19.37;;
6077;SDS011;3067;49.470;10.394;2023-03-03T11:41:29;39.13;;;19.80;;
6077;SDS011;3067;49.470;10.394;2023-03-03T11:43:59;42.20;;;17.83;;
6077;SDS011;3067;49.470;10.394;2023-03-03T11:46:30;36.50;;;18.83;;
6077;SDS011;3067;49.470;10.394;2023-03-03T11:49:02;38.67;;;18.10;;
6077;SDS011;3067;49.470;10.394;2023-03-03T11:51:33;39.60;;;18.90;;
6077;SDS011;3067;49.470;10.394;2023-03-03T11:54:03;34.87;;;18.37;;
6077;SDS011;3067;49.470;10.394;2023-03-03T11:56:33;37.50;;;19.27;;
6077;SDS011;3067;49.470;10.394;2023-03-03T11:59:04;33.67;;;17.87;;
6077;SDS011;3067;49.470;10.394;2023-03-03T12:01:34;52.87;;;20.87;;
6077;SDS011;3067;49.470;10.394;2023-03-03T12:04:05;35.90;;;18.97;;
6077;SDS011;3067;49.470;10.394;2023-03-03T12:06:37;36.53;;;19.63;;
6077;SDS011;3067;49.470;10.394;2023-03-03T12:09:19;33.43;;;18.50;;
6077;SDS011;3067;49.470;10.394;2023-03-03T12:11:51;36.70;;;19.10;;
6077;SDS011;3067;49.470;10.394;2023-03-03T12:14:23;34.63;;;18.80;;
6077;SDS011;3067;49.470;10.394;2023-03-03T12:16:54;36.50;;;18.10;;
6077;SDS011;3067;49.470;10.394;2023-03-03T12:19:34;35.10;;;18.73;;
6077;SDS011;3067;49.470;10.394;2023-03-03T12:22:11;34.97;;;18.73;;
6077;SDS011;3067;49.470;10.394;2023-03-03T12:24:45;38.30;;;19.20;;
6077;SDS011;3067;49.470;10.394;2023-03-03T12:27:19;35.90;;;19.13;;
6077;SDS011;3067;49.470;10.394;2023-03-03T12:29:51;38.77;;;19.57;;
6077;SDS011;3067;49.470;10.394;2023-03-03T12:32:25;38.17;;;18.90;;
6077;SDS011;3067;49.470;10.394;2023-03-03T12:34:57;30.03;;;17.17;;
6077;SDS011;3067;49.470;10.394;2023-03-03T12:37:40;38.23;;;19.13;;
6077;SDS011;3067;49.470;10.394;2023-03-03T12:40:13;32.07;;;17.00;;
6077;SDS011;3067;49.470;10.394;2023-03-03T12:42:46;40.33;;;19.10;;
6077;SDS011;3067;49.470;10.394;2023-03-03T12:45:20;36.53;;;18.33;;
6077;SDS011;3067;49.470;10.394;2023-03-03T12:47:50;34.17;;;18.13;;
6077;SDS011;3067;49.470;10.394;2023-03-03T12:50:24;38.33;;;18.03;;
6077;SDS011;3067;49.470;10.394;2023-03-03T12:52:56;37.40;;;18.73;;
6077;SDS011;3067;49.470;10.394;2023-03-03T12:55:29;31.53;;;18.00;;
6077;SDS011;3067;49.470;10.394;2023-03-03T12:58:01;30.87;;;18.13;;
6077;SDS011;3067;49.470;10.394;2023-03-03T13:00:36;34.77;;;19.00;;
6077;SDS011;3067;49.470;10.394;2023-03-03T13:03:08;34.73;;;18.80;;
6077;SDS011;3067;49.470;10.394;2023-03-03T13:05:43;34.50;;;19.03;;
6077;SDS011;3067;49.470;10.394;2023-03-03T13:11:06;36.70;;;18.50;;
6077;SDS011;3067;49.470;10.394;2023-03-03T13:13:38;33.90;;;19.17;;
6077;SDS011;3067;49.470;10.394;2023-03-03T13:16:08;29.30;;;17.97;;
6077;SDS011;3067;49.470;10.394;2023-03-03T13:18:41;33.37;;;18.73;;
6077;SDS011;3067;49.470;10.394;2023-03-03T13:21:13;31.53;;;18.77;;
6077;SDS011;3067;49.470;10.394;2023-03-03T13:23:43;29.27;;;18.30;;
6077;SDS011;3067;49.470;10.394;2023-03-03T13:26:14;33.03;;;19.57;;
6077;SDS011;3067;49.470;10.394;2023-03-03T13:28:49;33.17;;;18.60;;
6077;SDS011;3067;49.470;10.394;2023-03-03T13:31:19;32.50;;;18.37;;
6077;SDS011;3067;49.470;10.394;2023-03-03T13:33:48;30.03;;;18.43;;
6077;SDS011;3067;49.470;10.394;2023-03-03T13:36:20;28.73;;;18.30;;
6077;SDS011;3067;49.470;10.394;2023-03-03T13:38:50;31.97;;;18.87;;
6077;SDS011;3067;49.470;10.394;2023-03-03T13:41:20;34.87;;;19.57;;
6077;SDS011;3067;49.470;10.394;2023-03-03T13:43:50;30.87;;;18.60;;
6077;SDS011;3067;49.470;10.394;2023-03-03T13:46:22;31.57;;;18.23;;
6077;SDS011;3067;49.470;10.394;2023-03-03T13:49:02;31.60;;;18.80;;
6077;SDS011;3067;49.470;10.394;2023-03-03T13:51:35;33.90;;;19.03;;
6077;SDS011;3067;49.470;10.394;2023-03-03T13:54:08;31.47;;;18.50;;
6077;SDS011;3067;49.470;10.394;2023-03-03T13:56:42;29.50;;;18.60;;
6077;SDS011;3067;49.470;10.394;2023-03-03T13:59:12;27.63;;;18.57;;
6077;SDS011;3067;49.470;10.394;2023-03-03T14:01:44;31.40;;;19.20;;
6077;SDS011;3067;49.470;10.394;2023-03-03T14:04:16;31.13;;;19.63;;
6077;SDS011;3067;49.470;10.394;2023-03-03T14:06:52;33.13;;;19.17;;
6077;SDS011;3067;49.470;10.394;2023-03-03T14:09:26;34.13;;;19.40;;
6077;SDS011;3067;49.470;10.394;2023-03-03T14:11:59;31.67;;;18.33;;
6077;SDS011;3067;49.470;10.394;2023-03-03T14:14:36;27.33;;;17.37;;
6077;SDS011;3067;49.470;10.394;2023-03-03T14:17:07;31.00;;;18.70;;
6077;SDS011;3067;49.470;10.394;2023-03-03T14:19:35;32.93;;;18.27;;
6077;SDS011;3067;49.470;10.394;2023-03-03T14:22:13;31.63;;;19.77;;
6077;SDS011;3067;49.470;10.394;2023-03-03T14:24:55;32.87;;;20.33;;
6077;SDS011;3067;49.470;10.394;2023-03-03T14:27:24;38.13;;;23.80;;
6077;SDS011;3067;49.470;10.394;2023-03-03T14:29:51;36.63;;;21.83;;
6077;SDS011;3067;49.470;10.394;2023-03-03T14:32:20;37.13;;;21.10;;
6077;SDS011;3067;49.470;10.394;2023-03-03T14:34:51;39.87;;;23.63;;
6077;SDS011;3067;49.470;10.394;2023-03-03T14:37:24;43.17;;;22.27;;
6077;SDS011;3067;49.470;10.394;2023-03-03T14:40:06;40.27;;;20.37;;
6077;SDS011;3067;49.470;10.394;2023-03-03T14:42:39;32.13;;;18.33;;
6077;SDS011;3067;49.470;10.394;2023-03-03T14:45:20;35.87;;;21.40;;
6077;SDS011;3067;49.470;10.394;2023-03-03T14:47:49;36.33;;;19.73;;
6077;SDS011;3067;49.470;10.394;2023-03-03T14:50:30;30.90;;;19.10;;
6077;SDS011;3067;49.470;10.394;2023-03-03T14:58:27;35.23;;;19.83;;
6077;SDS011;3067;49.470;10.394;2023-03-03T15:01:07;33.57;;;18.90;;
6077;SDS011;3067;49.470;10.394;2023-03-03T15:03:35;34.10;;;18.97;;
6077;SDS011;3067;49.470;10.394;2023-03-03T15:06:09;35.63;;;20.27;;
6077;SDS011;3067;49.470;10.394;2023-03-03T15:08:38;33.90;;;19.37;;
6077;SDS011;3067;49.470;10.394;2023-03-03T15:11:12;35.53;;;18.93;;
6077;SDS011;3067;49.470;10.394;2023-03-03T15:13:41;38.13;;;18.90;;